Time;durP1;ratioP1;P1;durP2;ratioP2;P2;SDS_P1;SDS_P2;PMS_P1;PMS_P2;Temp;Humidity;BMP_temperature;BMP_pressure;BME280_temperature;BME280_humidity;BME280_pressure;Samples;Min_cycle;Max_cycle;Signal;HPM_P1;HPM_P2
2021/01/13 00:01:09;;;;;;;9.80;1.00;;;;;;;0.49;88.75;101820.03;5020850;28;20395;-78
2021/01/13 00:03:35;;;;;;;7.33;1.83;;;;;;;0.82;88.50;101816.75;5022514;28;20163;-79
2021/01/13 00:06:00;;;;;;;8.63;1.40;;;;;;;1.18;87.15;101822.13;5024994;28;20276;-80
2021/01/13 00:08:25;;;;;;;12.83;1.10;;;;;;;1.33;86.38;101819.00;5022226;28;20628;-79
2021/01/13 00:10:51;;;;;;;5.30;0.93;;;;;;;1.69;84.80;101815.81;5021810;28;20268;-79
2021/01/13 00:13:16;;;;;;;10.98;2.53;;;;;;;1.90;84.20;101811.44;5024555;28;20272;-79
2021/01/13 00:15:41;;;;;;;4.63;0.83;;;;;;;1.97;84.17;101816.22;5024549;28;20498;-82
2021/01/13 00:18:07;;;;;;;7.35;0.88;;;;;;;2.10;83.86;101817.22;5023386;28;20322;-79
2021/01/13 00:20:32;;;;;;;4.03;0.93;;;;;;;2.29;82.99;101818.56;5015904;28;20108;-79
2021/01/13 00:22:57;;;;;;;9.85;1.10;;;;;;;2.27;82.65;101820.06;5020911;28;20021;-81
2021/01/13 00:25:23;;;;;;;11.23;1.40;;;;;;;2.08;83.53;101813.69;5023889;28;20025;-80
2021/01/13 00:27:48;;;;;;;11.88;1.80;;;;;;;1.81;83.85;101810.00;5023672;28;20279;-80
2021/01/13 00:30:15;;;;;;;5.77;1.00;;;;;;;1.58;84.36;101812.47;5019954;28;20028;-80
2021/01/13 00:32:40;;;;;;;12.70;1.07;;;;;;;1.48;84.95;101810.03;5019312;28;20285;-79
2021/01/13 00:35:07;;;;;;;9.77;1.08;;;;;;;1.40;85.62;101800.97;5021619;28;20558;-79
2021/01/13 00:37:35;;;;;;;6.53;0.87;;;;;;;1.30;85.54;101804.47;5019801;28;20614;-80
2021/01/13 00:40:02;;;;;;;10.23;1.40;;;;;;;1.16;85.78;101798.34;5023460;28;20097;-80
2021/01/13 00:42:27;;;;;;;11.30;1.47;;;;;;;1.06;86.18;101803.47;5021704;28;20029;-79
2021/01/13 00:44:52;;;;;;;16.50;1.20;;;;;;;0.93;86.74;101795.69;5026182;28;20104;-79
2021/01/13 00:47:18;;;;;;;8.20;1.10;;;;;;;0.86;87.22;101803.56;5026296;28;20342;-80
2021/01/13 00:49:43;;;;;;;9.63;1.03;;;;;;;0.82;87.51;101801.56;5020862;28;20104;-80
2021/01/13 00:52:09;;;;;;;8.37;1.20;;;;;;;0.76;87.65;101796.91;5022291;28;20299;-79
2021/01/13 00:54:34;;;;;;;13.98;1.20;;;;;;;0.68;87.84;101787.88;5025885;28;20053;-79
2021/01/13 00:57:00;;;;;;;10.35;1.10;;;;;;;0.65;88.04;101791.75;5021738;28;20367;-80
2021/01/13 00:59:25;;;;;;;6.72;0.90;;;;;;;0.57;88.50;101794.59;5025782;28;20431;-79
2021/01/13 01:01:50;;;;;;;11.20;1.00;;;;;;;0.55;88.63;101792.69;5031889;28;20028;-79
2021/01/13 01:04:16;;;;;;;6.57;1.10;;;;;;;0.56;88.53;101792.81;5015638;28;20319;-79
2021/01/13 01:06:41;;;;;;;12.25;1.75;;;;;;;0.77;88.82;101796.16;5018695;28;20030;-78
2021/01/13 01:09:08;;;;;;;15.32;1.33;;;;;;;1.14;88.57;101796.47;5024687;28;20037;-79
2021/01/13 01:11:36;;;;;;;13.73;1.10;;;;;;;1.24;88.84;101788.78;5024532;28;20021;-80
2021/01/13 01:14:04;;;;;;;7.13;1.13;;;;;;;1.47;88.81;101800.66;5020745;28;20030;-80
2021/01/13 01:16:31;;;;;;;12.03;1.40;;;;;;;1.74;87.73;101827.19;5021674;28;20025;-78
2021/01/13 01:18:58;;;;;;;5.37;0.90;;;;;;;2.09;88.31;101819.66;5017892;28;20025;-79
2021/01/13 01:21:23;;;;;;;15.17;1.37;;;;;;;2.11;89.48;101818.97;5017882;28;20027;-79
2021/01/13 01:23:48;;;;;;;17.08;3.08;;;;;;;2.11;90.58;101803.78;5019753;28;20495;-77
2021/01/13 01:26:14;;;;;;;14.33;1.57;;;;;;;2.13;91.18;101808.97;5024566;28;20034;-79
2021/01/13 01:28:39;;;;;;;13.87;1.40;;;;;;;2.15;91.47;101800.69;5016931;28;20034;-78
2021/01/13 01:31:04;;;;;;;12.10;1.63;;;;;;;2.17;91.78;101805.88;5013897;28;20277;-78
2021/01/13 01:33:29;;;;;;;10.95;1.42;;;;;;;2.24;91.76;101815.66;5025149;28;20855;-78
2021/01/13 01:35:55;;;;;;;7.07;1.10;;;;;;;2.25;91.86;101824.16;5025311;28;20030;-78
2021/01/13 01:38:20;;;;;;;9.03;1.90;;;;;;;2.28;91.77;101815.16;5027446;28;20276;-79
2021/01/13 01:40:45;;;;;;;14.47;2.13;;;;;;;2.32;91.65;101804.47;5025986;28;20470;-79
2021/01/13 01:43:11;;;;;;;8.93;1.37;;;;;;;2.37;91.50;101798.06;5024304;28;20280;-78
2021/01/13 01:45:36;;;;;;;11.35;1.60;;;;;;;2.43;91.72;101810.28;5017090;28;20261;-79
2021/01/13 01:48:14;;;;;;;9.15;1.88;;;;;;;2.40;92.02;101828.69;5025317;28;20026;-79
2021/01/13 01:50:45;;;;;;;14.90;1.70;;;;;;;2.41;92.20;101835.53;5025998;28;20089;-80
2021/01/13 01:53:13;;;;;;;12.33;1.50;;;;;;;2.45;92.14;101817.22;5017594;28;20377;-79
2021/01/13 01:56:09;;;;;;;9.77;1.00;;;;;;;2.48;92.31;101819.97;5017722;28;20504;-80
2021/01/13 01:58:35;;;;;;;11.03;1.20;;;;;;;2.41;92.56;101820.31;5044935;28;20061;-81
2021/01/13 02:01:02;;;;;;;5.00;1.10;;;;;;;2.48;92.58;101809.84;5026199;28;20018;-81
2021/01/13 02:03:47;;;;;;;14.67;2.27;;;;;;;2.58;92.05;101815.56;5033880;28;20044;-80
2021/01/13 02:06:17;;;;;;;6.90;2.57;;;;;;;2.60;91.82;101812.38;5034690;28;20025;-80
2021/01/13 02:08:44;;;;;;;8.97;1.17;;;;;;;2.59;91.61;101817.31;5030464;28;20076;-80
2021/01/13 02:11:16;;;;;;;10.53;1.53;;;;;;;2.56;92.11;101810.38;5023033;28;20032;-78
2021/01/13 02:13:42;;;;;;;9.90;1.40;;;;;;;2.59;92.32;101817.31;5020812;28;20033;-79
2021/01/13 02:16:09;;;;;;;;;;;;;;;2.54;92.59;101808.50;5029538;28;20430;-80
2021/01/13 02:18:36;;;;;;;13.85;1.80;;;;;;;2.57;92.70;101818.88;5023135;28;19932;-79
2021/01/13 02:21:04;;;;;;;9.53;0.90;;;;;;;2.64;92.47;101819.44;5025071;28;20052;-79
2021/01/13 02:23:31;;;;;;;10.07;1.53;;;;;;;2.57;92.54;101819.75;5020864;28;20022;-79
2021/01/13 02:26:27;;;;;;;15.30;1.77;;;;;;;2.48;92.76;101816.56;5025091;28;20040;-79
2021/01/13 02:29:11;;;;;;;7.30;1.47;;;;;;;2.49;93.17;101824.28;5026928;28;20395;-79
2021/01/13 02:31:53;;;;;;;7.20;1.47;;;;;;;2.66;92.46;101827.16;5025310;28;20021;-79
2021/01/13 02:34:44;;;;;;;12.07;1.30;;;;;;;2.54;92.40;101828.78;5022565;28;20117;-80
2021/01/13 02:37:28;;;;;;;10.03;1.93;;;;;;;2.41;92.89;101830.47;5027707;28;20052;-79
2021/01/13 02:39:56;;;;;;;17.07;1.50;;;;;;;2.32;93.43;101836.53;5029111;28;20022;-78
2021/01/13 02:42:26;;;;;;;7.87;1.73;;;;;;;2.26;93.47;101839.47;5022661;28;20083;-80
2021/01/13 02:45:18;;;;;;;10.60;1.87;;;;;;;2.25;93.57;101832.66;5028010;28;20022;-78
2021/01/13 02:48:02;;;;;;;8.20;1.17;;;;;;;2.27;92.94;101835.28;5014899;28;20068;-78
2021/01/13 02:50:33;;;;;;;9.87;1.90;;;;;;;2.28;92.45;101827.81;5021344;28;20556;-78
2021/01/13 02:53:07;;;;;;;18.37;1.50;;;;;;;2.37;92.68;101838.63;5023046;28;20514;-78
2021/01/13 02:55:41;;;;;;;13.80;3.00;;;;;;;2.56;91.57;101830.66;5022416;28;20392;-78
2021/01/13 02:58:10;;;;;;;15.43;1.90;;;;;;;2.62;90.68;101830.25;5023610;28;20044;-80
2021/01/13 03:00:36;;;;;;;13.10;1.50;;;;;;;2.65;89.89;101831.34;5023123;28;20554;-78
2021/01/13 03:03:02;;;;;;;;;;;;;;;2.67;89.31;101822.19;5025137;28;20030;-78
2021/01/13 03:05:31;;;;;;;15.00;1.90;;;;;;;2.74;88.52;101826.03;5024845;28;20465;-78
2021/01/13 03:07:57;;;;;;;12.17;1.67;;;;;;;2.78;88.17;101823.81;5028689;28;20030;-77
2021/01/13 03:10:26;;;;;;;13.27;1.80;;;;;;;2.83;87.82;101831.75;5028378;28;20025;-77
2021/01/13 03:13:10;;;;;;;14.60;1.67;;;;;;;2.88;87.74;101832.06;5026859;28;20021;-80
2021/01/13 03:15:37;;;;;;;16.67;2.10;;;;;;;2.89;87.14;101827.09;5024039;28;20022;-78
2021/01/13 03:18:21;;;;;;;8.80;1.27;;;;;;;2.93;87.12;101829.09;5021148;28;20041;-79
2021/01/13 03:21:01;;;;;;;11.67;2.10;;;;;;;2.88;87.13;101821.91;5020509;28;20101;-78
2021/01/13 03:24:17;;;;;;;5.27;1.20;;;;;;;2.93;86.29;101826.56;5020249;28;20030;-79
2021/01/13 03:26:46;;;;;;;13.03;1.90;;;;;;;2.98;86.17;101822.69;4954326;29;20493;-77
2021/01/13 03:29:19;;;;;;;11.93;1.77;;;;;;;2.92;86.48;101829.84;4938281;29;20135;-78
2021/01/13 03:32:00;;;;;;;15.77;1.53;;;;;;;2.93;86.10;101831.63;4995624;28;20041;-77
2021/01/13 03:34:30;;;;;;;10.37;1.63;;;;;;;2.81;86.52;101829.09;5020656;28;20022;-78
2021/01/13 03:37:15;;;;;;;16.40;2.07;;;;;;;2.84;86.00;101832.63;5026823;28;20017;-78
2021/01/13 03:39:40;;;;;;;12.20;2.07;;;;;;;2.78;85.75;101833.97;5026209;28;20111;-78
2021/01/13 03:42:10;;;;;;;7.07;1.20;;;;;;;2.90;85.13;101823.78;5023729;28;20491;-77
2021/01/13 03:44:37;;;;;;;11.03;1.90;;;;;;;2.88;85.49;101825.34;5024743;28;20212;-78
2021/01/13 03:47:45;;;;;;;13.43;2.00;;;;;;;2.90;84.84;101822.91;5025422;28;20028;-78
2021/01/13 03:50:23;;;;;;;6.80;1.42;;;;;;;2.90;84.93;101827.97;5025995;28;20112;-79
2021/01/13 03:52:57;;;;;;;11.30;1.70;;;;;;;2.85;85.36;101837.81;5020075;28;20395;-78
2021/01/13 03:55:31;;;;;;;13.43;2.00;;;;;;;2.86;84.67;101826.88;5026559;28;20542;-78
2021/01/13 03:57:56;;;;;;;12.13;1.20;;;;;;;2.82;84.91;101822.38;5026841;28;20030;-78
2021/01/13 04:00:22;;;;;;;16.47;2.43;;;;;;;2.84;84.39;101823.34;5025521;28;20029;-79
2021/01/13 04:03:06;;;;;;;;;;;;;;;2.84;84.31;101827.56;5021461;28;20514;-79
2021/01/13 04:05:36;;;;;;;10.77;1.47;;;;;;;2.83;84.30;101820.72;5027944;28;20004;-79
2021/01/13 04:08:03;;;;;;;12.97;2.33;;;;;;;2.72;85.22;101822.50;5024583;28;20564;-79
2021/01/13 04:10:29;;;;;;;12.87;2.27;;;;;;;2.76;84.18;101809.25;5026042;28;20040;-78
2021/01/13 04:13:20;;;;;;;11.15;1.60;;;;;;;2.70;84.90;101824.94;5025539;28;20057;-77
2021/01/13 04:15:50;;;;;;;10.60;1.77;;;;;;;2.70;84.42;101821.53;5015912;28;20041;-78
2021/01/13 04:18:18;;;;;;;13.97;1.80;;;;;;;2.70;85.03;101822.41;5024673;28;20060;-78
2021/01/13 04:20:43;;;;;;;8.70;1.37;;;;;;;2.69;84.01;101818.09;5018914;28;20026;-78
2021/01/13 04:23:09;;;;;;;10.80;1.33;;;;;;;2.78;84.38;101818.75;5024318;28;20107;-79
2021/01/13 04:25:34;;;;;;;6.85;1.40;;;;;;;2.84;83.84;101825.91;5022964;28;20034;-80
2021/01/13 04:28:00;;;;;;;12.07;1.92;;;;;;;2.82;84.14;101819.84;5025532;28;20105;-79
2021/01/13 04:30:26;;;;;;;10.68;1.63;;;;;;;2.82;84.06;101819.84;5018894;28;20172;-78
2021/01/13 04:32:55;;;;;;;;;;;;;;;2.82;84.02;101814.75;5024638;28;20030;-78
2021/01/13 04:35:21;;;;;;;6.87;1.30;;;;;;;2.93;83.43;101821.50;5025982;28;20521;-77
2021/01/13 04:37:48;;;;;;;;;;;;;;;2.91;83.42;101812.84;5026988;28;20137;-78
2021/01/13 04:40:35;;;;;;;12.60;2.33;;;;;;;2.93;83.60;101811.34;5023200;28;19917;-78
2021/01/13 04:43:09;;;;;;;12.97;1.60;;;;;;;2.94;83.62;101799.53;5023585;28;20032;-78
2021/01/13 04:45:40;;;;;;;10.77;1.40;;;;;;;2.97;83.19;101803.16;5026448;28;20068;-78
2021/01/13 04:48:15;;;;;;;7.53;1.33;;;;;;;2.87;84.13;101803.28;5019025;28;20029;-78
2021/01/13 04:50:46;;;;;;;13.60;1.60;;;;;;;2.73;84.51;101796.38;5021061;28;20021;-80
2021/01/13 04:53:13;;;;;;;12.97;1.90;;;;;;;2.68;84.50;101802.78;5023640;28;20491;-78
2021/01/13 04:55:56;;;;;;;9.93;1.63;;;;;;;2.68;84.01;101795.16;5025871;28;20033;-79
2021/01/13 04:58:40;;;;;;;9.60;1.70;;;;;;;2.79;83.26;101800.19;5023031;28;20080;-79
2021/01/13 05:01:30;;;;;;;12.70;1.73;;;;;;;2.77;83.39;101808.47;5020471;28;20056;-78
2021/01/13 05:04:18;;;;;;;7.00;1.90;;;;;;;2.71;83.80;101801.34;5028361;28;20064;-78
2021/01/13 05:06:48;;;;;;;12.60;2.53;;;;;;;2.76;83.11;101796.56;5050856;28;20502;-78
2021/01/13 05:09:15;;;;;;;11.30;1.50;;;;;;;2.64;83.90;101790.66;5027372;28;20148;-77
2021/01/13 05:11:44;;;;;;;12.93;1.47;;;;;;;2.66;83.38;101789.97;5022485;23;20038;-81
2021/01/13 05:14:11;;;;;;;11.43;1.83;;;;;;;2.68;82.99;101795.16;5004840;28;20041;-79
2021/01/13 05:16:48;;;;;;;13.30;2.03;;;;;;;2.60;83.59;101791.19;5003698;28;20113;-80
2021/01/13 05:19:52;;;;;;;9.20;1.30;;;;;;;2.51;83.58;101791.41;5011615;28;20034;-80
2021/01/13 05:22:17;;;;;;;18.07;2.47;;;;;;;2.55;83.45;101784.91;4982906;28;20539;-79
2021/01/13 05:24:49;;;;;;;11.55;1.27;;;;;;;2.58;83.17;101782.59;4980695;28;20031;-80
2021/01/13 05:27:47;;;;;;;13.73;1.43;;;;;;;2.52;83.18;101779.63;4976954;28;20051;-79
2021/01/13 05:30:13;;;;;;;10.87;2.50;;;;;;;2.57;83.26;101780.81;4983456;28;20018;-80
2021/01/13 05:32:42;;;;;;;17.30;2.45;;;;;;;2.56;82.86;101779.94;4981540;28;20042;-80
2021/01/13 05:35:08;;;;;;;11.00;1.33;;;;;;;2.55;83.53;101784.91;4977211;28;20086;-80
2021/01/13 05:37:53;;;;;;;8.37;1.50;;;;;;;2.75;81.42;101782.13;4977217;28;20037;-80
2021/01/13 05:40:19;;;;;;;10.63;1.93;;;;;;;2.62;82.33;101784.59;4981083;28;20037;-79
2021/01/13 05:42:45;;;;;;;14.35;1.98;;;;;;;2.63;82.95;101784.69;4979564;28;20113;-80
2021/01/13 05:45:14;;;;;;;10.80;1.55;;;;;;;2.54;83.29;101773.88;4985172;28;20484;-80
2021/01/13 05:47:53;;;;;;;11.40;1.43;;;;;;;2.63;83.10;101781.28;4994537;28;20030;-80
2021/01/13 05:50:21;;;;;;;15.33;1.80;;;;;;;2.67;82.33;101776.53;4975761;28;20396;-80
2021/01/13 05:52:54;;;;;;;9.43;1.40;;;;;;;2.69;82.47;101776.63;4979472;28;20031;-79
2021/01/13 05:55:21;;;;;;;10.47;1.17;;;;;;;2.66;82.45;101777.31;4979138;28;20042;-80
2021/01/13 05:57:54;;;;;;;7.03;1.30;;;;;;;2.70;82.38;101773.31;4981119;28;20126;-80
2021/01/13 06:00:21;;;;;;;13.13;1.70;;;;;;;2.69;82.71;101777.50;4982316;28;20552;-80
2021/01/13 06:02:47;;;;;;;11.67;1.57;;;;;;;2.71;82.26;101775.09;4983251;28;20034;-79
2021/01/13 06:05:13;;;;;;;;;;;;;;;2.67;82.35;101773.09;4981823;28;20410;-80
2021/01/13 06:07:42;;;;;;;13.77;1.23;;;;;;;2.79;80.97;101769.75;4980348;28;20020;-80
2021/01/13 06:10:07;;;;;;;5.67;1.50;;;;;;;2.73;82.34;101773.53;4979437;28;20033;-80
2021/01/13 06:12:40;;;;;;;12.25;1.63;;;;;;;2.71;82.20;101770.88;4978017;28;20034;-80
2021/01/13 06:15:11;;;;;;;12.60;1.30;;;;;;;2.66;82.50;101781.50;4978396;28;20019;-80
2021/01/13 06:17:48;;;;;;;7.30;1.30;;;;;;;2.64;82.27;101777.97;4973509;28;20026;-79
2021/01/13 06:20:18;;;;;;;16.37;2.87;;;;;;;2.59;82.71;101776.75;4981896;28;20026;-79
2021/01/13 06:22:47;;;;;;;9.73;1.37;;;;;;;2.62;82.01;101774.44;4982800;28;20038;-80
2021/01/13 06:25:19;;;;;;;18.53;1.73;;;;;;;2.61;82.50;101778.63;4987215;28;20026;-80
2021/01/13 06:27:58;;;;;;;6.27;1.00;;;;;;;2.62;81.88;101779.53;4982800;28;20027;-78
2021/01/13 06:30:27;;;;;;;5.50;1.23;;;;;;;2.66;81.75;101776.41;4978781;28;20097;-80
2021/01/13 06:33:04;;;;;;;9.17;1.30;;;;;;;2.60;82.16;101774.34;4981868;28;20369;-80
2021/01/13 06:35:42;;;;;;;11.30;1.58;;;;;;;2.57;81.92;101781.69;4976703;28;20548;-78
2021/01/13 06:38:42;;;;;;;7.17;1.23;;;;;;;2.68;81.90;101774.88;4977797;28;20511;-80
2021/01/13 06:41:09;;;;;;;15.83;1.97;;;;;;;2.67;81.88;101768.03;4984428;28;20046;-82
2021/01/13 06:43:35;;;;;;;10.53;1.63;;;;;;;2.73;81.91;101771.00;4978353;28;20030;-80
2021/01/13 06:46:00;;;;;;;10.18;1.70;;;;;;;2.79;81.22;101767.22;4983002;28;20041;-79
2021/01/13 06:48:27;;;;;;;14.17;2.07;;;;;;;2.72;81.75;101762.50;4986677;28;20073;-79
2021/01/13 06:50:57;;;;;;;13.60;1.63;;;;;;;2.67;82.62;101762.97;4988238;28;20080;-79
2021/01/13 06:53:23;;;;;;;12.13;1.37;;;;;;;2.61;82.29;101763.41;4981316;28;20502;-79
2021/01/13 06:55:48;;;;;;;;;;;;;;;2.66;82.53;101764.63;4985172;28;20022;-79
2021/01/13 06:58:18;;;;;;;10.23;1.57;;;;;;;2.70;81.90;101753.03;4980847;28;20014;-79
2021/01/13 07:00:46;;;;;;;9.40;1.17;;;;;;;2.72;81.78;101759.97;4984425;28;20054;-79
2021/01/13 07:03:21;;;;;;;7.90;1.27;;;;;;;2.74;81.74;101760.06;4983395;28;20026;-78
2021/01/13 07:05:46;;;;;;;9.00;1.10;;;;;;;2.67;81.99;101768.03;4990257;28;20396;-79
2021/01/13 07:08:11;;;;;;;10.35;1.77;;;;;;;2.76;81.57;101756.88;4988112;28;20030;-78
2021/01/13 07:10:37;;;;;;;8.47;1.37;;;;;;;2.77;81.82;101761.16;4978080;28;20106;-79
2021/01/13 07:13:03;;;;;;;17.77;1.38;;;;;;;2.77;81.62;101757.75;4997255;28;20739;-79
2021/01/13 07:15:32;;;;;;;11.90;1.53;;;;;;;2.77;81.78;101760.28;4987186;28;20070;-79
2021/01/13 07:17:57;;;;;;;10.50;1.40;;;;;;;2.76;81.82;101754.31;4979666;28;20026;-79
2021/01/13 07:20:23;;;;;;;8.73;1.38;;;;;;;2.82;81.11;101756.41;4982022;28;20026;-78
2021/01/13 07:22:49;;;;;;;10.93;1.43;;;;;;;2.78;81.46;101759.50;4984222;28;20031;-79
2021/01/13 07:25:14;;;;;;;;;;;;;;;2.76;81.64;101758.53;4981689;28;20026;-78
2021/01/13 07:27:44;;;;;;;5.90;1.13;;;;;;;2.76;81.31;101758.53;4992602;28;19929;-79
2021/01/13 07:30:11;;;;;;;5.17;0.93;;;;;;;2.82;81.24;101758.94;4983545;28;20027;-79
2021/01/13 07:32:39;;;;;;;5.43;1.00;;;;;;;2.80;81.79;101763.91;4982905;28;20117;-79
2021/01/13 07:35:06;;;;;;;10.40;1.47;;;;;;;2.81;81.24;101767.31;4986669;28;20039;-80
2021/01/13 07:37:44;;;;;;;9.83;1.47;;;;;;;2.84;81.18;101766.66;4984720;28;20372;-82
2021/01/13 07:40:28;;;;;;;6.07;1.33;;;;;;;2.81;81.94;101762.25;4981927;28;20031;-80
2021/01/13 07:43:10;;;;;;;6.10;1.20;;;;;;;2.96;80.72;101757.38;4986102;28;20039;-80
2021/01/13 07:45:42;;;;;;;7.17;1.40;;;;;;;2.99;80.86;101757.56;4988071;28;20374;-80
2021/01/13 07:48:20;;;;;;;5.30;0.90;;;;;;;2.95;81.08;101760.69;4987883;28;20508;-83
2021/01/13 07:50:49;;;;;;;9.47;1.63;;;;;;;3.01;80.70;101761.97;4986260;28;20403;-81
2021/01/13 07:53:27;;;;;;;11.37;1.60;;;;;;;2.99;81.10;101762.66;4983314;28;20040;-80
2021/01/13 07:55:57;;;;;;;9.00;1.20;;;;;;;2.99;80.64;101747.44;4981476;28;20374;-80
2021/01/13 07:58:27;;;;;;;9.77;1.30;;;;;;;3.01;81.35;101745.88;4984452;28;20559;-80
2021/01/13 08:01:32;;;;;;;11.43;1.57;;;;;;;3.03;80.86;101749.38;4974669;28;20050;-80
2021/01/13 08:04:36;;;;;;;8.40;1.10;;;;;;;3.08;80.70;101754.00;4974483;28;20045;-80
2021/01/13 08:07:02;;;;;;;11.73;1.90;;;;;;;3.12;80.55;101761.03;4983104;28;20043;-79
2021/01/13 08:09:33;;;;;;;9.63;1.43;;;;;;;3.13;80.27;101757.72;4989722;28;20018;-80
2021/01/13 08:12:13;;;;;;;10.03;1.37;;;;;;;3.12;80.94;101755.09;4982876;28;20029;-80
2021/01/13 08:14:59;;;;;;;7.33;0.90;;;;;;;3.16;80.82;101758.72;4983767;28;20027;-81
2021/01/13 08:17:50;;;;;;;6.88;1.77;;;;;;;3.15;80.31;101750.22;4980450;28;20769;-80
2021/01/13 08:20:26;;;;;;;10.13;1.30;;;;;;;3.18;80.65;101762.22;5001492;28;20038;-80
2021/01/13 08:23:09;;;;;;;8.32;1.05;;;;;;;3.18;80.49;101760.56;4986213;28;20030;-81
2021/01/13 08:25:42;;;;;;;11.33;1.30;;;;;;;3.11;80.46;101754.19;4979796;28;20497;-80
2021/01/13 08:28:11;;;;;;;14.33;3.00;;;;;;;3.17;80.83;101763.00;4981534;28;20090;-81
2021/01/13 08:30:40;;;;;;;12.43;1.60;;;;;;;3.20;81.04;101763.22;4981831;28;20049;-81
2021/01/13 08:33:09;;;;;;;13.37;1.73;;;;;;;3.23;80.19;101753.25;4976134;28;20496;-82
2021/01/13 08:35:36;;;;;;;10.47;1.60;;;;;;;3.22;80.87;101748.97;4987637;28;20036;-80
2021/01/13 08:38:07;;;;;;;4.60;1.17;;;;;;;3.31;80.28;101758.09;4991948;28;20033;-83
2021/01/13 08:40:33;;;;;;;10.13;1.20;;;;;;;3.32;80.77;101756.44;4987289;28;20105;-83
2021/01/13 08:43:07;;;;;;;11.75;1.33;;;;;;;3.33;80.68;101754.00;4981793;28;20118;-82
2021/01/13 08:45:44;;;;;;;10.23;1.33;;;;;;;3.34;80.73;101754.88;4986343;28;20381;-83
2021/01/13 08:48:14;;;;;;;10.67;1.80;;;;;;;3.39;80.32;101751.00;4990913;28;20064;-82
2021/01/13 08:50:42;;;;;;;10.73;1.57;;;;;;;3.45;80.26;101753.94;4974507;28;20033;-82
2021/01/13 08:53:21;;;;;;;8.37;1.43;;;;;;;3.48;80.17;101764.28;4980352;28;20401;-82
2021/01/13 08:55:53;;;;;;;9.70;1.30;;;;;;;3.50;80.06;101749.16;4988227;28;20061;-82
2021/01/13 08:58:29;;;;;;;6.13;1.60;;;;;;;3.50;80.56;101761.84;4990637;28;20492;-83
2021/01/13 09:01:05;;;;;;;13.82;2.67;;;;;;;3.46;80.41;101754.81;4983508;28;20027;-81
2021/01/13 09:03:41;;;;;;;9.18;1.52;;;;;;;3.45;79.77;101743.78;4989410;28;20066;-84
2021/01/13 09:06:24;;;;;;;10.88;1.27;;;;;;;3.58;80.26;101751.44;4991846;28;20519;-82
2021/01/13 09:08:54;;;;;;;9.63;1.60;;;;;;;3.74;79.51;101750.78;4979483;28;20104;-83
2021/01/13 09:11:34;;;;;;;12.30;1.70;;;;;;;3.87;79.43;101738.06;4973912;28;20097;-83
2021/01/13 09:14:20;;;;;;;11.67;1.50;;;;;;;4.00;78.30;101737.22;4978604;28;20162;-84
2021/01/13 09:16:49;;;;;;;13.55;1.73;;;;;;;4.12;78.91;101740.53;4977739;28;20031;-83
2021/01/13 09:19:35;;;;;;;9.17;1.50;;;;;;;4.30;78.46;101751.00;4973511;28;20027;-83
2021/01/13 09:22:02;;;;;;;9.27;1.40;;;;;;;4.53;77.70;101749.88;4976610;28;20026;-83
2021/01/13 09:24:36;;;;;;;10.53;1.90;;;;;;;4.69;77.52;101745.88;4981910;28;20117;-82
2021/01/13 09:27:04;;;;;;;10.33;1.93;;;;;;;4.88;76.21;101740.25;4979245;28;20037;-82
2021/01/13 09:29:50;;;;;;;11.70;1.60;;;;;;;4.92;76.39;101741.31;4976577;28;20492;-82
2021/01/13 09:32:18;;;;;;;16.77;1.80;;;;;;;4.90;75.20;101743.75;4989046;28;20026;-83
2021/01/13 09:34:49;;;;;;;11.93;1.97;;;;;;;4.77;76.51;101730.19;4981748;28;20026;-80
2021/01/13 09:37:14;;;;;;;13.33;1.83;;;;;;;4.65;75.19;101726.09;4983320;28;20034;-82
2021/01/13 09:39:55;;;;;;;8.60;1.30;;;;;;;4.53;76.17;101719.34;4984268;28;20408;-81
2021/01/13 09:42:22;;;;;;;17.37;2.07;;;;;;;4.37;76.61;101728.59;4980334;28;20034;-82
2021/01/13 09:45:00;;;;;;;14.33;2.07;;;;;;;4.42;77.35;101728.88;4973630;28;20117;-83
2021/01/13 09:47:27;;;;;;;8.23;1.90;;;;;;;4.44;76.85;101729.84;4984507;28;20041;-81
2021/01/13 09:52:20;;;;;;;11.70;1.83;;;;;;;4.59;76.18;101735.91;5061341;23;20058;-82
2021/01/13 09:54:50;;;;;;;6.30;1.88;;;;;;;4.97;75.23;101734.81;5023422;28;20438;-82
2021/01/13 09:57:16;;;;;;;8.80;1.43;;;;;;;5.54;72.48;101742.50;5025718;28;20087;-81
2021/01/13 10:00:00;;;;;;;17.30;2.40;;;;;;;6.45;68.82;101733.16;5035102;28;20129;-82
2021/01/13 10:02:26;;;;;;;8.83;1.60;;;;;;;7.30;65.51;101726.59;5008280;28;20083;-81
2021/01/13 10:04:52;;;;;;;12.77;1.63;;;;;;;7.56;63.56;101733.03;5009514;28;20073;-81
2021/01/13 10:07:21;;;;;;;8.32;1.88;;;;;;;7.94;63.03;101722.13;5004857;28;20034;-82
2021/01/13 10:09:48;;;;;;;10.37;1.80;;;;;;;8.60;62.37;101729.56;4995778;28;20072;-83
2021/01/13 10:12:15;;;;;;;7.93;1.80;;;;;;;9.12;58.25;101725.91;4999100;28;20098;-82
2021/01/13 10:14:50;;;;;;;11.07;1.93;;;;;;;9.48;59.25;101724.03;4998107;28;20037;-81
2021/01/13 10:17:24;;;;;;;9.03;2.07;;;;;;;9.20;57.29;101724.53;5002561;28;20064;-82
2021/01/13 10:19:49;;;;;;;8.33;1.70;;;;;;;9.12;59.03;101731.91;5001284;28;20037;-81
2021/01/13 10:22:17;;;;;;;12.52;1.60;;;;;;;9.14;58.37;101724.28;5006376;28;20030;-82
2021/01/13 10:24:42;;;;;;;8.40;1.75;;;;;;;9.77;56.89;101725.25;5003412;28;20399;-83
2021/01/13 10:27:09;;;;;;;6.97;1.80;;;;;;;10.29;55.75;101713.69;5000451;28;20037;-82
2021/01/13 10:29:35;;;;;;;10.38;1.60;;;;;;;10.06;56.18;101718.69;5005211;28;20022;-82
2021/01/13 10:32:00;;;;;;;8.63;2.22;;;;;;;10.36;54.70;101714.78;5008200;28;20030;-80
2021/01/13 10:34:26;;;;;;;8.63;1.88;;;;;;;10.07;54.99;101721.31;5004617;28;20057;-81
2021/01/13 10:36:52;;;;;;;10.63;1.90;;;;;;;8.86;57.68;101723.06;5009075;28;20014;-80
2021/01/13 10:39:20;;;;;;;;;;;;;;;8.15;61.39;101728.28;4997874;28;20029;-81
2021/01/13 10:42:12;;;;;;;12.63;1.80;;;;;;;7.14;65.30;101720.69;5006457;28;20459;-83
2021/01/13 10:44:38;;;;;;;14.97;1.97;;;;;;;6.96;65.71;101716.31;4996688;28;20116;-82
2021/01/13 10:47:08;;;;;;;7.38;2.22;;;;;;;8.06;64.76;101713.34;5003925;28;20748;-82
2021/01/13 10:49:39;;;;;;;9.87;1.50;;;;;;;9.58;59.59;101714.22;5023879;28;20113;-83
2021/01/13 10:52:14;;;;;;;9.07;1.97;;;;;;;10.36;56.46;101709.66;5012638;28;20038;-82
2021/01/13 10:54:44;;;;;;;8.63;1.45;;;;;;;10.51;54.33;101701.69;5003931;28;20037;-82
2021/01/13 10:57:11;;;;;;;6.60;1.40;;;;;;;10.80;54.58;101708.78;4999074;28;20026;-81
2021/01/13 10:59:38;;;;;;;6.85;1.50;;;;;;;10.77;53.15;101700.06;4994570;28;20077;-81
2021/01/13 11:02:07;;;;;;;4.82;1.40;;;;;;;10.60;54.19;101702.88;5009164;28;20038;-82
2021/01/13 11:04:38;;;;;;;8.02;1.40;;;;;;;9.92;55.89;101703.63;4999451;28;20099;-82
2021/01/13 11:07:07;;;;;;;12.55;1.85;;;;;;;10.57;54.77;101691.63;5007131;28;20028;-80
2021/01/13 11:09:36;;;;;;;11.90;1.90;;;;;;;10.46;54.21;101692.94;5001188;28;20036;-83
2021/01/13 11:12:02;;;;;;;9.15;1.60;;;;;;;10.73;53.25;101685.34;4997975;28;20045;-82
2021/01/13 11:14:38;;;;;;;11.43;1.50;;;;;;;10.83;53.44;101687.44;4999759;28;20038;-83
2021/01/13 11:17:12;;;;;;;7.15;1.48;;;;;;;10.98;52.04;101685.41;5019472;28;20026;-83
2021/01/13 11:19:43;;;;;;;7.10;1.33;;;;;;;10.97;50.87;101687.91;5003563;28;20037;-82
2021/01/13 11:22:08;;;;;;;8.40;1.33;;;;;;;11.52;50.65;101688.13;5018052;28;20058;-83
2021/01/13 11:24:40;;;;;;;13.27;1.52;;;;;;;10.29;51.60;101690.56;5001888;28;20061;-83
2021/01/13 11:27:08;;;;;;;11.18;1.75;;;;;;;9.96;53.90;101676.41;5000451;28;20022;-82
2021/01/13 11:29:37;;;;;;;7.65;1.83;;;;;;;10.20;53.35;101656.84;5007037;28;20029;-83
2021/01/13 11:32:06;;;;;;;5.43;1.75;;;;;;;9.86;54.48;101684.56;5010525;28;20137;-83
2021/01/13 11:34:32;;;;;;;7.88;1.40;;;;;;;10.03;54.83;101672.38;4999452;28;20018;-83
2021/01/13 11:37:06;;;;;;;10.40;1.73;;;;;;;9.79;53.90;101673.19;5003087;28;20029;-81
2021/01/13 11:39:32;;;;;;;7.67;1.70;;;;;;;9.02;55.20;101663.09;5006787;28;20030;-82
2021/01/13 11:42:08;;;;;;;6.97;2.33;;;;;;;9.39;56.26;101660.41;4998710;28;20030;-81
2021/01/13 11:45:02;;;;;;;10.20;2.38;;;;;;;9.57;54.86;101663.72;4997745;28;20034;-83
2021/01/13 11:47:34;;;;;;;10.23;2.15;;;;;;;9.96;54.71;101666.13;5006263;28;20101;-82
2021/01/13 11:50:14;;;;;;;15.65;2.28;;;;;;;8.68;56.36;101664.19;5002015;28;20032;-81
2021/01/13 11:52:43;;;;;;;8.80;1.90;;;;;;;8.39;57.97;101662.88;5004006;28;20129;-83